Terminal Aerodrome Forecast
Issued by NWS Birmingham, AL

Home | Current Version | Previous Version | Text Only | Print | Product List | Glossary On
Versions: 1 2 3 4 5 6 7 8 9 10 11 12 13 14 15
806
FTUS44 KBMX 221929 AAA
TAFBHM
TAF AMD
KBHM 221929Z 2219/2318 14005KT P6SM VCTS BKN025CB
      TEMPO 2219/2221 6SM TSRA BKN015CB
     FM230900 23002KT 6SM BR OVC007
     FM231400 05005KT P6SM VCSH OVC020=

USA.gov is the U.S. government's official web portal to all federal, state and local government web resources and services.